createdAt,value
2023-02-08T00:03:48.582Z,40.22
2023-02-08T00:07:50.561Z,39.30
2023-02-08T00:11:52.610Z,40.10
2023-02-08T00:15:55.249Z,36.50
2023-02-08T00:19:57.270Z,38.10
2023-02-08T00:23:59.352Z,38.10
2023-02-08T00:28:03.882Z,37.03
2023-02-08T00:32:06.229Z,38.72
2023-02-08T00:36:09.144Z,37.20
2023-02-08T00:40:11.931Z,36.90
2023-02-08T00:44:13.828Z,39.35
2023-02-08T00:48:15.737Z,36.65
2023-02-08T00:52:19.973Z,37.10
2023-02-08T00:56:22.009Z,35.65
2023-02-08T01:00:24.004Z,36.47
2023-02-08T01:04:26.519Z,35.38
2023-02-08T01:08:28.589Z,33.50
2023-02-08T01:12:31.115Z,34.05
2023-02-08T01:16:35.013Z,35.53
2023-02-08T01:20:37.795Z,31.38
2023-02-08T01:24:40.094Z,35.55
2023-02-08T01:28:42.198Z,34.95
2023-02-08T01:32:43.915Z,35.03
2023-02-08T01:36:45.909Z,37.00
2023-02-08T01:40:48.389Z,33.60
2023-02-08T01:45:15.349Z,35.47
2023-02-08T01:49:25.194Z,36.28
2023-02-08T01:53:29.346Z,36.78
2023-02-08T01:57:31.624Z,35.00
2023-02-08T02:01:34.263Z,35.50
2023-02-08T02:05:41.423Z,36.72
2023-02-08T02:10:22.855Z,34.30
2023-02-08T02:14:24.923Z,34.25
2023-02-08T02:18:30.529Z,33.90
2023-02-08T02:22:32.502Z,37.63
2023-02-08T02:26:44.286Z,37.60
2023-02-08T02:31:01.630Z,34.38
2023-02-08T02:35:20.113Z,36.63
2023-02-08T02:39:57.406Z,37.75
2023-02-08T02:44:00.914Z,40.67
2023-02-08T02:48:13.700Z,38.60
2023-02-08T02:52:23.866Z,36.45
2023-02-08T02:56:32.065Z,39.28
2023-02-08T03:04:39.178Z,37.28
2023-02-08T03:09:04.639Z,32.03
2023-02-08T03:13:31.236Z,33.45
2023-02-08T03:17:44.998Z,34.95
2023-02-08T03:21:54.904Z,34.38
2023-02-08T03:26:20.576Z,34.90
2023-02-08T03:30:46.764Z,38.05
2023-02-08T03:34:51.548Z,38.13
2023-02-08T03:38:54.672Z,38.05
2023-02-08T03:43:01.156Z,36.42
2023-02-08T03:47:12.377Z,38.50
2023-02-08T03:51:15.577Z,37.10
2023-02-08T03:55:21.699Z,38.92
2023-02-08T03:59:29.358Z,39.38
2023-02-08T04:03:33.979Z,36.58
2023-02-08T04:07:35.964Z,40.17
2023-02-08T04:11:37.631Z,39.67
2023-02-08T04:15:40.160Z,38.60
2023-02-08T04:19:42.409Z,40.22
2023-02-08T04:23:44.340Z,41.42
2023-02-08T04:27:46.445Z,40.75
2023-02-08T04:31:48.587Z,41.78
2023-02-08T04:35:50.589Z,39.60
2023-02-08T04:39:52.709Z,42.53
2023-02-08T04:43:54.630Z,40.80
2023-02-08T04:47:58.341Z,46.60
2023-02-08T04:52:01.086Z,46.72
2023-02-08T04:56:03.119Z,44.90
2023-02-08T05:00:06.391Z,47.15
2023-02-08T05:04:08.506Z,44.65
2023-02-08T05:08:10.430Z,46.08
2023-02-08T05:12:12.476Z,47.03
2023-02-08T05:16:14.487Z,45.65
2023-02-08T05:20:16.573Z,45.42
2023-02-08T05:24:18.695Z,44.17
2023-02-08T05:28:23.653Z,45.22
2023-02-08T05:32:26.019Z,43.70
2023-02-08T05:36:28.355Z,41.90
2023-02-08T05:40:31.623Z,40.90
2023-02-08T05:44:33.673Z,40.63
2023-02-08T05:48:35.671Z,39.08
2023-02-08T05:52:37.658Z,37.92
2023-02-08T05:56:39.600Z,38.10
2023-02-08T06:00:42.002Z,39.03
2023-02-08T06:04:44.230Z,40.92
2023-02-08T06:08:46.607Z,36.05
2023-02-08T06:12:48.726Z,37.15
2023-02-08T06:16:50.744Z,39.65
2023-02-08T06:20:54.211Z,40.05
2023-02-08T06:24:56.207Z,38.03
2023-02-08T06:28:59.181Z,34.20
2023-02-08T06:33:01.141Z,38.13
2023-02-08T06:37:05.494Z,36.63
2023-02-08T06:41:07.873Z,38.67
2023-02-08T06:45:12.065Z,39.28
2023-02-08T06:49:15.670Z,38.67
2023-02-08T06:53:17.627Z,39.85
2023-02-08T06:57:19.763Z,35.03
2023-02-08T07:01:21.733Z,34.88
2023-02-08T07:05:23.750Z,37.33
2023-02-08T07:09:25.715Z,33.72
2023-02-08T07:13:27.849Z,36.38
2023-02-08T07:17:29.847Z,35.45
2023-02-08T07:21:31.855Z,32.80
2023-02-08T07:25:34.034Z,34.45
2023-02-08T07:29:36.674Z,31.40
2023-02-08T07:33:39.581Z,32.72
2023-02-08T07:37:41.753Z,29.63
2023-02-08T07:41:43.685Z,28.00
2023-02-08T07:45:45.719Z,25.45
2023-02-08T07:49:47.745Z,26.48
2023-02-08T07:53:50.569Z,26.33
2023-02-08T07:57:52.182Z,26.55
2023-02-08T08:01:54.215Z,23.77
2023-02-08T08:05:56.242Z,21.92
2023-02-08T08:09:58.371Z,22.17
2023-02-08T08:14:00.468Z,23.80
2023-02-08T08:18:02.468Z,23.73
2023-02-08T08:22:04.518Z,24.20
2023-02-08T08:26:08.810Z,24.42
2023-02-08T08:30:13.949Z,23.92
2023-02-08T08:34:15.937Z,23.65
2023-02-08T08:38:17.895Z,22.75
2023-02-08T08:42:20.898Z,23.15
2023-02-08T08:46:22.947Z,21.60
2023-02-08T08:50:25.214Z,21.60
2023-02-08T08:54:27.214Z,20.15
2023-02-08T08:58:29.717Z,22.92
2023-02-08T09:02:31.862Z,20.58
2023-02-08T09:07:04.714Z,20.95
2023-02-08T09:11:16.748Z,20.60
2023-02-08T09:15:27.105Z,19.05
2023-02-08T09:19:32.471Z,17.83
2023-02-08T09:23:38.619Z,19.80
2023-02-08T09:27:43.253Z,19.20
2023-02-08T09:31:46.402Z,18.85
2023-02-08T09:35:50.487Z,21.10
2023-02-08T09:39:53.184Z,17.55
2023-02-08T09:44:20.652Z,18.65
2023-02-08T09:48:33.991Z,17.25
2023-02-08T09:52:54.772Z,16.63
2023-02-08T09:57:00.074Z,15.95
2023-02-08T10:01:05.965Z,14.52
2023-02-08T10:05:13.856Z,15.65
2023-02-08T10:09:20.832Z,17.02
2023-02-08T10:13:46.398Z,15.93
2023-02-08T10:18:18.698Z,15.00
2023-02-08T10:22:39.604Z,14.35
2023-02-08T10:26:48.035Z,11.82
2023-02-08T10:31:06.850Z,11.07
2023-02-08T10:35:25.785Z,11.40
2023-02-08T10:39:30.871Z,10.40
2023-02-08T10:43:38.692Z,9.50
2023-02-08T10:47:55.572Z,9.65
2023-02-08T10:51:57.609Z,10.57
2023-02-08T10:55:59.888Z,7.75
2023-02-08T11:00:11.377Z,7.20
2023-02-08T11:04:13.728Z,7.25
2023-02-08T11:08:22.334Z,6.43
2023-02-08T11:12:24.346Z,8.00
2023-02-08T11:16:27.390Z,7.15
2023-02-08T11:20:36.867Z,7.18
2023-02-08T11:24:41.489Z,5.68
2023-02-08T11:28:44.334Z,5.30
2023-02-08T11:32:48.592Z,4.50
2023-02-08T11:36:50.876Z,4.15
2023-02-08T11:40:56.330Z,4.20
2023-02-08T11:45:00.120Z,5.40
2023-02-08T11:49:03.585Z,4.30
2023-02-08T11:53:17.458Z,4.15
2023-02-08T11:57:22.361Z,4.20
2023-02-08T12:01:29.422Z,4.72
2023-02-08T12:05:55.366Z,5.00
2023-02-08T12:10:27.391Z,4.65
2023-02-08T12:14:50.525Z,4.63
2023-02-08T12:19:20.326Z,5.40
2023-02-08T12:23:34.744Z,5.63
2023-02-08T12:27:48.510Z,6.55
2023-02-08T12:32:27.930Z,6.82
2023-02-08T12:36:42.151Z,6.15
2023-02-08T12:41:03.104Z,5.65
2023-02-08T12:45:21.575Z,6.78
2023-02-08T12:53:53.037Z,4.75
2023-02-08T12:58:00.266Z,6.00
2023-02-08T13:02:13.472Z,5.07
2023-02-08T13:06:21.354Z,4.95
2023-02-08T13:10:37.446Z,4.45
2023-02-08T13:14:45.771Z,5.43
2023-02-08T13:19:23.919Z,12.52
2023-02-08T13:23:36.552Z,11.77
2023-02-08T13:27:43.098Z,9.57
2023-02-08T13:31:51.770Z,7.15
2023-02-08T13:35:54.435Z,6.60
2023-02-08T13:40:21.523Z,5.80
2023-02-08T13:44:37.399Z,5.30
2023-02-08T13:48:49.500Z,5.80
2023-02-08T13:52:52.369Z,6.68
2023-02-08T13:56:54.538Z,6.90
2023-02-08T14:00:56.628Z,16.13
2023-02-08T14:05:37.089Z,7.07
2023-02-08T14:09:51.206Z,21.23
2023-02-08T14:14:16.150Z,24.58
2023-02-08T14:18:28.912Z,22.70
2023-02-08T14:22:37.327Z,7.63
2023-02-08T14:26:39.398Z,6.70
2023-02-08T14:30:42.766Z,8.52
2023-02-08T14:34:45.180Z,6.80
2023-02-08T14:38:53.858Z,8.57
2023-02-08T14:43:00.194Z,7.63
2023-02-08T14:47:02.016Z,8.05
2023-02-08T14:51:18.666Z,8.70
2023-02-08T14:55:27.495Z,7.50
2023-02-08T14:59:34.613Z,8.57
2023-02-08T15:03:37.183Z,9.73
2023-02-08T15:07:50.123Z,9.60
2023-02-08T15:12:04.960Z,8.32
2023-02-08T15:16:12.441Z,10.70
2023-02-08T15:20:20.600Z,12.25
2023-02-08T15:28:29.375Z,9.20
2023-02-08T15:32:31.522Z,11.40
2023-02-08T15:36:36.580Z,14.02
2023-02-08T15:40:38.593Z,10.93
2023-02-08T15:44:43.890Z,10.73
2023-02-08T15:48:46.562Z,10.65
2023-02-08T15:53:13.373Z,11.07
2023-02-08T15:57:46.265Z,9.43
2023-02-08T16:01:49.312Z,12.30
2023-02-08T16:06:00.566Z,12.02
2023-02-08T16:10:03.623Z,13.85
2023-02-08T16:14:07.790Z,15.02
2023-02-08T16:18:31.684Z,14.75
2023-02-08T16:22:33.973Z,16.83
2023-02-08T16:26:45.400Z,17.95
2023-02-08T16:30:47.681Z,21.95
2023-02-08T16:34:50.020Z,29.05
2023-02-08T16:39:16.384Z,27.38
2023-02-08T16:43:21.173Z,31.33
2023-02-08T16:47:53.695Z,30.25
2023-02-08T16:51:59.820Z,39.88
2023-02-08T16:56:02.209Z,62.38
2023-02-08T17:00:13.938Z,62.75
2023-02-08T17:04:16.139Z,62.55
2023-02-08T17:08:21.050Z,64.07
2023-02-08T17:12:24.283Z,78.10
2023-02-08T17:16:28.920Z,68.85
2023-02-08T17:20:34.648Z,60.00
2023-02-08T17:24:38.920Z,62.05
2023-02-08T17:28:43.086Z,57.63
2023-02-08T17:32:45.056Z,60.15
2023-02-08T17:36:47.852Z,55.53
2023-02-08T17:40:49.893Z,56.08
2023-02-08T17:44:51.460Z,54.03
2023-02-08T17:48:54.507Z,53.08
2023-02-08T17:52:56.678Z,52.90
2023-02-08T17:56:59.822Z,62.55
2023-02-08T18:01:01.938Z,57.90
2023-02-08T18:05:04.666Z,59.50
2023-02-08T18:09:06.661Z,59.63
2023-02-08T18:13:09.102Z,59.50
2023-02-08T18:17:11.421Z,66.75
2023-02-08T18:21:16.153Z,66.07
2023-02-08T18:25:19.080Z,65.07
2023-02-08T18:29:21.314Z,71.40
2023-02-08T18:33:23.342Z,70.13
2023-02-08T18:37:25.775Z,69.38
2023-02-08T18:41:29.764Z,67.90
2023-02-08T18:45:31.928Z,64.90
2023-02-08T18:49:40.797Z,62.03
2023-02-08T18:53:45.920Z,65.50
2023-02-08T18:57:48.077Z,66.15
2023-02-08T19:01:50.355Z,76.35
2023-02-08T19:05:52.538Z,89.07
2023-02-08T19:09:54.722Z,80.95
2023-02-08T19:13:58.883Z,86.47
2023-02-08T19:18:00.932Z,93.70
2023-02-08T19:22:03.152Z,80.97
2023-02-08T19:26:08.534Z,93.18
2023-02-08T19:30:10.904Z,90.68
2023-02-08T19:34:13.076Z,84.20
2023-02-08T19:38:15.149Z,102.22
2023-02-08T19:42:17.396Z,100.80
2023-02-08T19:46:25.701Z,99.20
2023-02-08T19:50:27.766Z,102.97
2023-02-08T19:54:30.022Z,98.55
2023-02-08T19:58:33.327Z,96.72
2023-02-08T20:02:35.215Z,91.10
2023-02-08T20:06:39.263Z,90.00
2023-02-08T20:10:44.279Z,91.85
2023-02-08T20:14:46.354Z,93.75
2023-02-08T20:18:49.015Z,99.40
2023-02-08T20:22:51.170Z,96.18
2023-02-08T20:26:53.372Z,96.55
2023-02-08T20:30:55.490Z,96.60
2023-02-08T20:34:59.723Z,96.70
2023-02-08T20:39:02.080Z,96.82
2023-02-08T20:43:04.736Z,105.47
2023-02-08T20:47:08.892Z,100.88
2023-02-08T20:51:14.069Z,90.82
2023-02-08T20:55:15.993Z,98.47
2023-02-08T20:59:18.002Z,98.85
2023-02-08T21:03:20.126Z,93.82
2023-02-08T21:07:22.353Z,90.78
2023-02-08T21:11:30.519Z,93.60
2023-02-08T21:15:32.744Z,92.55
2023-02-08T21:19:35.185Z,99.20
2023-02-08T21:23:38.173Z,96.55
2023-02-08T21:27:40.248Z,90.32
2023-02-08T21:31:42.542Z,93.47
2023-02-08T21:35:44.615Z,87.70
2023-02-08T21:39:47.415Z,84.13
2023-02-08T21:43:51.015Z,85.90
2023-02-08T21:47:53.200Z,80.78
2023-02-08T21:52:13.579Z,80.82
2023-02-08T21:56:15.772Z,78.70
2023-02-08T22:00:17.986Z,81.35
2023-02-08T22:04:20.522Z,74.45
2023-02-08T22:08:22.290Z,75.13
2023-02-08T22:12:24.482Z,72.03
2023-02-08T22:16:26.559Z,70.43
2023-02-08T22:20:29.742Z,72.57
2023-02-08T22:24:35.500Z,68.13
2023-02-08T22:28:37.697Z,67.05
2023-02-08T22:32:44.253Z,66.20
2023-02-08T22:36:46.843Z,66.72
2023-02-08T22:40:48.887Z,65.95
2023-02-08T22:44:54.421Z,66.97
2023-02-08T22:48:56.496Z,68.15
2023-02-08T22:52:58.542Z,69.60
2023-02-08T22:57:00.615Z,82.70
2023-02-08T23:01:02.673Z,76.05
2023-02-08T23:05:05.104Z,80.20
2023-02-08T23:09:07.015Z,75.78
2023-02-08T23:13:09.584Z,79.10
2023-02-08T23:17:11.870Z,77.50
2023-02-08T23:21:18.672Z,74.32
2023-02-08T23:25:21.202Z,71.40
2023-02-08T23:29:23.343Z,77.97
2023-02-08T23:33:24.927Z,81.35
2023-02-08T23:37:26.952Z,74.90
2023-02-08T23:41:29.552Z,73.95
2023-02-08T23:45:31.597Z,74.38
2023-02-08T23:49:33.822Z,74.20
2023-02-08T23:53:37.256Z,74.40
2023-02-08T23:57:39.558Z,72.85
